Dades meteomassalio
Diari Summary for Febrer 27, 2018 Units:  Metric    English   Both
« Previous Day
Next Day »
Diari Semanal Mensual Anual Personalitzat
  Maxima: Minima: Mijana:
Temperatura: -17.8 °C -19.6 °C -17.4 °C
Rosada: -17.8 °C -23.6 °C -21.9 °C
Humitat: Humidity % 42 % 56 %
Velocitat del vent: 0 km/h 0 km/h 11.6 km/h
Racha vent: 0 km/h - -
Vent:- - West
Pressio: 0 hPa 34188.4 hPa -
Pluja: 0 mm    
Historical Graphs
 
 
Tabular Data for Febrer 27, 2018
Time Temperature Dew Point Pressure Wind Wind Speed Wind Gust Humidity Rainfall Rate (Hourly) solar Conditions
-17.8 °C -17.8 °C 0 hPa Calm     Humidity % 0 mm SolarRadiationWatts/m^2 W/m2 Conditions
00:01 -16.2 °C -22.4 °C 34222.3 hPa WNW 29.8 km/h 29.8 km/h 44 % 0 mm 0.0 W/m2 CLR
00:06 -16.2 °C -22.4 °C 34212.1 hPa NW 20.9 km/h 20.9 km/h 44 % 0 mm 0.0 W/m2 CLR
00:11 -16.2 °C -22.4 °C 34222.3 hPa WNW 23.8 km/h 23.8 km/h 44 % 0 mm 0.0 W/m2 CLR
00:16 -16.6 °C -22.7 °C 34222.3 hPa WNW 15 km/h 15 km/h 44 % 0 mm 0.0 W/m2 CLR
00:21 -16.6 °C -22.7 °C 34222.3 hPa WNW 15 km/h 15 km/h 44 % 0 mm 0.0 W/m2 CLR
00:26 -16.6 °C -22.5 °C 34222.3 hPa NW 20.8 km/h 20.8 km/h 45 % 0 mm 0.0 W/m2 CLR
00:31 -16.6 °C -22.5 °C 34222.3 hPa WNW 26.9 km/h 26.9 km/h 45 % 0 mm 0.0 W/m2 CLR
00:36 -16.6 °C -22.5 °C 34222.3 hPa NW 32.8 km/h 32.8 km/h 45 % 0 mm 0.0 W/m2 CLR
00:41 -16.6 °C -22.5 °C 34222.3 hPa NW 29.8 km/h 29.8 km/h 45 % 0 mm 0.0 W/m2 CLR
00:46 -16.6 °C -22.5 °C 34235.8 hPa NW 29.8 km/h 29.8 km/h 45 % 0 mm 0.0 W/m2 CLR
00:51 -16.6 °C -22.5 °C 34235.8 hPa WNW 33.6 km/h 33.6 km/h 45 % 0 mm 0.0 W/m2 CLR
00:56 -16.6 °C -22.5 °C 34235.8 hPa NW 38.8 km/h 38.8 km/h 45 % 0 mm 0.0 W/m2 CLR
01:01 -16.6 °C -22.5 °C 34222.3 hPa NW 32.8 km/h 32.8 km/h 45 % 0 mm 0.0 W/m2 CLR
01:06 -16.6 °C -22.5 °C 34235.8 hPa WNW 44.7 km/h 44.7 km/h 45 % 0 mm 0.0 W/m2 CLR
01:11 -16.6 °C -22.3 °C 34235.8 hPa NW 33.6 km/h 33.6 km/h 46 % 0 mm 0.0 W/m2 CLR
01:16 -16.6 °C -22.3 °C 34235.8 hPa NW 26.9 km/h 26.9 km/h 46 % 0 mm 0.0 W/m2 CLR
01:21 -16.6 °C -22.3 °C 34235.8 hPa WNW 23.8 km/h 23.8 km/h 46 % 0 mm 0.0 W/m2 CLR
01:26 -16.8 °C -22.6 °C 34235.8 hPa WNW 29.8 km/h 29.8 km/h 46 % 0 mm 0.0 W/m2 CLR
01:31 -16.8 °C -22.6 °C 34235.8 hPa WNW 29.8 km/h 29.8 km/h 46 % 0 mm 0.0 W/m2 CLR
01:36 -16.8 °C -22.6 °C 34246 hPa NNW 28.5 km/h 28.5 km/h 46 % 0 mm 0.0 W/m2 CLR
01:41 -16.8 °C -22.6 °C 34246 hPa NW 32.8 km/h 32.8 km/h 46 % 0 mm 0.0 W/m2 CLR
01:46 -16.8 °C -22.6 °C 34246 hPa NW 32.8 km/h 32.8 km/h 46 % 0 mm 0.0 W/m2 CLR
01:51 -16.8 °C -22.6 °C 34246 hPa WNW 32.8 km/h 32.8 km/h 46 % 0 mm 0.0 W/m2 CLR
01:56 -16.8 °C -22.6 °C 34246 hPa WNW 29.8 km/h 29.8 km/h 46 % 0 mm 0.0 W/m2 CLR
02:01 -17.2 °C -22.9 °C 34246 hPa WSW 7.7 km/h 7.7 km/h 46 % 0 mm 0.0 W/m2 CLR
02:06 -17.2 °C -22.7 °C 34246 hPa West 5.1 km/h 5.1 km/h 47 % 0 mm 0.0 W/m2 CLR
02:11 -17.2 °C -22.7 °C 34246 hPa WSW 23.8 km/h 23.8 km/h 47 % 0 mm 0.0 W/m2 CLR
02:16 -17.2 °C -22.7 °C 34246 hPa SW 11.9 km/h 11.9 km/h 47 % 0 mm 0.0 W/m2 CLR
02:21 -17.2 °C -22.6 °C 34256.2 hPa WSW 12.9 km/h 12.9 km/h 48 % 0 mm 0.0 W/m2 CLR
02:26 -16.8 °C -22.4 °C 34256.2 hPa West 17.9 km/h 17.9 km/h 47 % 0 mm 0.0 W/m2 CLR
02:31 -16.8 °C -22.3 °C 34246 hPa West 18.2 km/h 18.2 km/h 48 % 0 mm 0.0 W/m2 CLR
02:36 -16.8 °C -22.3 °C 34246 hPa West 33.6 km/h 33.6 km/h 48 % 0 mm 0.0 W/m2 CLR
02:41 -16.8 °C -22.4 °C 34246 hPa WNW 26.9 km/h 26.9 km/h 47 % 0 mm 0.0 W/m2 CLR
02:46 -17.2 °C -22.7 °C 34246 hPa WNW 41.7 km/h 41.7 km/h 47 % 0 mm 0.0 W/m2 CLR
02:51 -17.2 °C -22.7 °C 34246 hPa NW 26.9 km/h 26.9 km/h 47 % 0 mm 0.0 W/m2 CLR
02:56 -17.4 °C -23.1 °C 34246 hPa NW 32.8 km/h 32.8 km/h 47 % 0 mm 0.0 W/m2 CLR
03:01 -17.4 °C -23.1 °C 34246 hPa NW 28.5 km/h 28.5 km/h 47 % 0 mm 0.0 W/m2 CLR
03:11 -17.4 °C -22.9 °C 34246 hPa WSW 33.6 km/h 33.6 km/h 48 % 0 mm 0.0 W/m2 CLR
03:16 -17.2 °C -22.6 °C 34235.8 hPa WSW 29.8 km/h 29.8 km/h 48 % 0 mm 0.0 W/m2 CLR
03:22 -17.2 °C -22.6 °C 34246 hPa West 29.8 km/h 29.8 km/h 48 % 0 mm 0.0 W/m2 CLR
03:27 -17.4 °C -22.9 °C 34246 hPa NW 23.8 km/h 23.8 km/h 48 % 0 mm 0.0 W/m2 CLR
03:32 -17.8 °C -23 °C 34246 hPa WNW 23.8 km/h 23.8 km/h 49 % 0 mm 0.0 W/m2 CLR
03:37 -17.8 °C -23 °C 34246 hPa NW 26.9 km/h 26.9 km/h 49 % 0 mm 0.0 W/m2 CLR
03:42 -17.8 °C -23 °C 34235.8 hPa WNW 35.7 km/h 35.7 km/h 49 % 0 mm 0.0 W/m2 CLR
03:47 -17.8 °C -23 °C 34235.8 hPa WNW 29.8 km/h 29.8 km/h 49 % 0 mm 0.0 W/m2 CLR
03:52 -17.4 °C -22.7 °C 34235.8 hPa West 28.5 km/h 28.5 km/h 49 % 0 mm 0.0 W/m2 CLR
03:57 -17.4 °C -22.6 °C 34235.8 hPa West 12.9 km/h 12.9 km/h 50 % 0 mm 0.0 W/m2 CLR
04:02 -17.4 °C -22.6 °C 34235.8 hPa WNW 29.8 km/h 29.8 km/h 50 % 0 mm 0.0 W/m2 CLR
04:07 -17.8 °C -22.9 °C 34246 hPa NW 23.3 km/h 23.3 km/h 50 % 0 mm 0.0 W/m2 CLR
04:12 -17.8 °C -22.7 °C 34235.8 hPa WNW 11.9 km/h 11.9 km/h 51 % 0 mm 0.0 W/m2 CLR
04:17 -18.1 °C -23 °C 34235.8 hPa NNW 23.8 km/h 23.8 km/h 51 % 0 mm 0.0 W/m2 CLR
04:22 -18.1 °C -23.2 °C 34235.8 hPa WNW 29.8 km/h 29.8 km/h 50 % 0 mm 0.0 W/m2 CLR
04:27 -18.1 °C -23.2 °C 34235.8 hPa WNW 28.5 km/h 28.5 km/h 50 % 0 mm 0.0 W/m2 CLR
04:32 -18.1 °C -23 °C 34235.8 hPa WNW 20.9 km/h 20.9 km/h 51 % 0 mm 0.0 W/m2 CLR
04:37 -18.1 °C -22.9 °C 34235.8 hPa West 26.9 km/h 26.9 km/h 52 % 0 mm 0.0 W/m2 CLR
04:42 -18.1 °C -22.9 °C 34235.8 hPa WNW 11.9 km/h 11.9 km/h 52 % 0 mm 0.0 W/m2 CLR
04:47 -18.1 °C -22.8 °C 34235.8 hPa WNW 10.3 km/h 10.3 km/h 53 % 0 mm 0.0 W/m2 CLR
04:52 -18.4 °C -23.1 °C 34235.8 hPa WSW 9 km/h 9 km/h 53 % 0 mm 0.0 W/m2 CLR
04:57 -18.7 °C -23.2 °C 34235.8 hPa WSW 9 km/h 9 km/h 54 % 0 mm 0.0 W/m2 CLR
05:02 -19 °C -23.5 °C 34235.8 hPa WNW 15 km/h 15 km/h 54 % 0 mm 0.0 W/m2 CLR
05:07 -19 °C -23.5 °C 34235.8 hPa WNW 20.9 km/h 20.9 km/h 54 % 0 mm 0.0 W/m2 CLR
05:12 -19 °C -23.5 °C 34235.8 hPa WNW 20.8 km/h 20.8 km/h 54 % 0 mm 0.0 W/m2 CLR
05:17 -18.7 °C -23.1 °C 34235.8 hPa WNW 9 km/h 9 km/h 55 % 0 mm 0.0 W/m2 CLR
05:22 -19 °C -23.4 °C 34235.8 hPa Calm     55 % 0 mm 0.0 W/m2 CLR
05:27 -19.3 °C -23.5 °C 34235.8 hPa WNW 15.6 km/h 15.6 km/h 56 % 0 mm 0.0 W/m2 CLR
05:32 -19 °C -23.1 °C 34235.8 hPa West 23.8 km/h 23.8 km/h 57 % 0 mm 0.0 W/m2 CLR
05:37 -19 °C -23.1 °C 34235.8 hPa West 11.9 km/h 11.9 km/h 57 % 0 mm 0.0 W/m2 CLR
05:42 -19 °C -23 °C 34246 hPa WNW 9 km/h 9 km/h 58 % 0 mm 0.0 W/m2 CLR
05:47 -19.3 °C -23.3 °C 34246 hPa West 9 km/h 9 km/h 58 % 0 mm 0.0 W/m2 CLR
05:52 -19.3 °C -23.2 °C 34246 hPa WSW 12.9 km/h 12.9 km/h 59 % 0 mm 0.0 W/m2 CLR
05:57 -19.6 °C -23.2 °C 34235.8 hPa West 18.2 km/h 18.2 km/h 61 % 0 mm 0.0 W/m2 CLR
06:02 -19.6 °C -23.3 °C 34235.8 hPa WNW 20.9 km/h 20.9 km/h 60 % 0 mm 0.0 W/m2 CLR
06:07 -19.3 °C -23.2 °C 34235.8 hPa WNW 20.9 km/h 20.9 km/h 59 % 0 mm 0.0 W/m2 CLR
06:12 -19 °C -23 °C 34235.8 hPa West 15.6 km/h 15.6 km/h 58 % 0 mm 0.0 W/m2 CLR
06:17 -19 °C -23 °C 34246 hPa West 9 km/h 9 km/h 58 % 0 mm 0.0 W/m2 CLR
06:22 -19 °C -23 °C 34246 hPa West 11.9 km/h 11.9 km/h 58 % 0 mm 0.0 W/m2 CLR
06:27 -19 °C -23.1 °C 34246 hPa WNW 15 km/h 15 km/h 57 % 0 mm 0.0 W/m2 CLR
06:32 -19 °C -23.1 °C 34235.8 hPa West 23.8 km/h 23.8 km/h 57 % 0 mm 0.0 W/m2 CLR
06:37 -19 °C -23.2 °C 34246 hPa West 15 km/h 15 km/h 56 % 0 mm 0.0 W/m2 CLR
06:42 -18.7 °C -22.8 °C 34246 hPa WSW 9 km/h 9 km/h 57 % 0 mm 0.0 W/m2 CLR
06:47 -19 °C -23.2 °C 34246 hPa WSW 10.3 km/h 10.3 km/h 56 % 0 mm 0.0 W/m2 CLR
06:52 -19 °C -23.2 °C 34246 hPa NNW 10.3 km/h 10.3 km/h 56 % 0 mm 0.0 W/m2 CLR
06:57 -18.7 °C -22.9 °C 34246 hPa NW 17.9 km/h 17.9 km/h 56 % 0 mm 0.0 W/m2 CLR
07:02 -18.4 °C -22.9 °C 34246 hPa NW 23.8 km/h 23.8 km/h 54 % 0 mm 0.0 W/m2 CLR
07:07 -18.1 °C -22.8 °C 34246 hPa NNW 20.9 km/h 20.9 km/h 53 % 0 mm 0.0 W/m2 CLR
07:12 -18.1 °C -22.6 °C 34246 hPa NNW 18.2 km/h 18.2 km/h 54 % 0 mm 0.0 W/m2 CLR
07:17 -18.1 °C -22.8 °C 34246 hPa WNW 11.9 km/h 11.9 km/h 53 % 0 mm 0.0 W/m2 CLR
07:22 -18.1 °C -22.8 °C 34246 hPa West 20.9 km/h 20.9 km/h 53 % 0 mm 0.0 W/m2 CLR
07:27 -18.1 °C -22.9 °C 34246 hPa West 29.8 km/h 29.8 km/h 52 % 0 mm 0.0 W/m2 OVC
07:32 -17.8 °C -22.6 °C 34246 hPa West 26.9 km/h 26.9 km/h 52 % 0 mm 0.0 W/m2 OVC
07:37 -17.8 °C -22.6 °C 34246 hPa WNW 26.9 km/h 26.9 km/h 52 % 0 mm 0.0 W/m2 OVC
07:42 -17.8 °C -22.6 °C 34246 hPa NW 23.3 km/h 23.3 km/h 52 % 0 mm 0.0 W/m2 OVC
07:47 -17.8 °C -22.6 °C 34246 hPa WNW 15 km/h 15 km/h 52 % 0 mm 0.0 W/m2 OVC
07:52 -17.8 °C -22.6 °C 34246 hPa WNW 23.8 km/h 23.8 km/h 52 % 0 mm 5.0 W/m2 OVC
07:57 -17.8 °C -22.6 °C 34246 hPa WNW 17.9 km/h 17.9 km/h 52 % 0 mm 9.0 W/m2 BKN
08:02 -17.8 °C -22.6 °C 34246 hPa West 23.3 km/h 23.3 km/h 52 % 0 mm 12.0 W/m2 BKN
08:07 -17.8 °C -22.4 °C 34246 hPa West 23.8 km/h 23.8 km/h 53 % 0 mm 16.0 W/m2 BKN
08:12 -17.8 °C -22.3 °C 34246 hPa West 17.9 km/h 17.9 km/h 54 % 0 mm 26.0 W/m2 BKN
08:17 -17.8 °C -22.3 °C 34256.2 hPa West 17.9 km/h 17.9 km/h 54 % 0 mm 26.0 W/m2 BKN
08:22 -17.8 °C -22.4 °C 34256.2 hPa West 10.3 km/h 10.3 km/h 53 % 0 mm 44.0 W/m2 BKN
08:27 -17.4 °C -22.1 °C 34256.2 hPa WNW 12.9 km/h 12.9 km/h 54 % 0 mm 53.0 W/m2 SCT
08:32 -17.4 °C -22.2 °C 34246 hPa NW 20.9 km/h 20.9 km/h 53 % 0 mm 39.0 W/m2 BKN
08:37 -17.4 °C -22.2 °C 34256.2 hPa WNW 17.9 km/h 17.9 km/h 53 % 0 mm 54.0 W/m2 SCT
08:42 -17.4 °C -22.2 °C 34256.2 hPa WNW 9 km/h 9 km/h 53 % 0 mm 67.0 W/m2 SCT
08:47 -17.4 °C -22.1 °C 34256.2 hPa Calm     54 % 0 mm 40.0 W/m2 SCT
08:52 -17.4 °C -22.1 °C 34246 hPa Calm     54 % 0 mm 67.0 W/m2 SCT
08:57 -17.4 °C -22.2 °C 34246 hPa WNW 20.9 km/h 20.9 km/h 53 % 0 mm 60.0 W/m2 SCT
09:02 -17.2 °C -21.9 °C 34246 hPa NW 23.3 km/h 23.3 km/h 53 % 0 mm 74.0 W/m2 SCT
09:07 -17.2 °C -22.1 °C 34246 hPa NW 23.8 km/h 23.8 km/h 52 % 0 mm 79.0 W/m2 FEW
09:12 -17.2 °C -22.1 °C 34246 hPa NW 26.9 km/h 26.9 km/h 52 % 0 mm 90.0 W/m2 FEW
09:17 -17.2 °C -21.9 °C 34246 hPa NW 26.9 km/h 26.9 km/h 53 % 0 mm 111.0 W/m2 FEW
09:22 -17.2 °C -21.9 °C 34246 hPa WNW 17.9 km/h 17.9 km/h 53 % 0 mm 83.0 W/m2 CLR
09:27 -17.2 °C -21.9 °C 34235.8 hPa NNW 17.9 km/h 17.9 km/h 53 % 0 mm 86.0 W/m2 CLR
09:32 -17.2 °C -21.9 °C 34235.8 hPa NW 23.8 km/h 23.8 km/h 53 % 0 mm 90.0 W/m2 CLR
09:37 -17.2 °C -21.9 °C 34235.8 hPa WNW 17.9 km/h 17.9 km/h 53 % 0 mm 91.0 W/m2 CLR
09:42 -17.2 °C -21.9 °C 34235.8 hPa West 18.2 km/h 18.2 km/h 53 % 0 mm 95.0 W/m2 CLR
09:47 -17.2 °C -21.8 °C 34246 hPa NW 20.9 km/h 20.9 km/h 54 % 0 mm 84.0 W/m2 CLR
09:52 -17.2 °C -21.9 °C 34235.8 hPa North 9 km/h 9 km/h 53 % 0 mm 74.0 W/m2 FEW
09:57 -17.2 °C -21.9 °C 34235.8 hPa North 26.9 km/h 26.9 km/h 53 % 0 mm 62.0 W/m2 FEW
10:03 -17.2 °C -21.8 °C 34235.8 hPa NW 15.6 km/h 15.6 km/h 54 % 0 mm 67.0 W/m2 SCT
10:08 -17.2 °C -21.8 °C 34235.8 hPa NW 18.2 km/h 18.2 km/h 54 % 0 mm 104.0 W/m2 FEW
10:13 -17.2 °C -21.8 °C 34235.8 hPa NW 9 km/h 9 km/h 54 % 0 mm 74.0 W/m2 FEW
10:18 -17.2 °C -21.9 °C 34235.8 hPa NW 23.3 km/h 23.3 km/h 53 % 0 mm 74.0 W/m2 FEW
10:23 -17.2 °C -21.9 °C 34246 hPa WNW 17.9 km/h 17.9 km/h 53 % 0 mm 76.0 W/m2 FEW
10:28 -17.2 °C -21.9 °C 34246 hPa NW 9 km/h 9 km/h 53 % 0 mm 65.0 W/m2 FEW
10:33 -17.2 °C -21.9 °C 34246 hPa Calm     53 % 0 mm 83.0 W/m2 FEW
10:38 -17.2 °C -22.2 °C 34246 hPa NW 10.3 km/h 10.3 km/h 51 % 0 mm 90.0 W/m2 FEW
10:43 -17.2 °C -22.6 °C 34246 hPa NW 20.9 km/h 20.9 km/h 48 % 0 mm 88.0 W/m2 CLR
10:48 -17.2 °C -22.4 °C 34246 hPa NW 20.9 km/h 20.9 km/h 49 % 0 mm 79.0 W/m2 CLR
10:53 -17.2 °C -22.6 °C 34246 hPa NW 15 km/h 15 km/h 48 % 0 mm 79.0 W/m2 FEW
10:58 -17.2 °C -22.6 °C 34246 hPa NW 15.6 km/h 15.6 km/h 48 % 0 mm 72.0 W/m2 FEW
11:03 -17.2 °C -22.6 °C 34246 hPa WNW 11.9 km/h 11.9 km/h 48 % 0 mm 81.0 W/m2 FEW
11:08 -17.2 °C -22.6 °C 34246 hPa NW 9 km/h 9 km/h 48 % 0 mm 91.0 W/m2 FEW
11:13 -17.2 °C -22.6 °C 34246 hPa NNW 15 km/h 15 km/h 48 % 0 mm 100.0 W/m2 CLR
11:18 -17.2 °C -22.4 °C 34246 hPa NNW 15 km/h 15 km/h 49 % 0 mm 116.0 W/m2 CLR
11:23 -17.2 °C -22.4 °C 34235.8 hPa NNW 9 km/h 9 km/h 49 % 0 mm 105.0 W/m2 CLR
11:29 -17.2 °C -22.3 °C 34235.8 hPa NNW 15.6 km/h 15.6 km/h 50 % 0 mm 105.0 W/m2 CLR
11:34 -17.2 °C -22.4 °C 34235.8 hPa NNW 20.8 km/h 20.8 km/h 49 % 0 mm 95.0 W/m2 CLR
11:39 -17.2 °C -22.3 °C 34235.8 hPa North 17.9 km/h 17.9 km/h 50 % 0 mm 90.0 W/m2 CLR
11:44 -17.2 °C -22.3 °C 34235.8 hPa NW 9 km/h 9 km/h 50 % 0 mm 84.0 W/m2 CLR
11:49 -17.2 °C -22.6 °C 34246 hPa North 11.9 km/h 11.9 km/h 48 % 0 mm 79.0 W/m2 FEW
11:54 -17.2 °C -22.7 °C 34246 hPa NNW 23.8 km/h 23.8 km/h 47 % 0 mm 81.0 W/m2 FEW
11:59 -17.2 °C -22.9 °C 34246 hPa North 20.9 km/h 20.9 km/h 46 % 0 mm 77.0 W/m2 FEW
12:04 -17.2 °C -22.9 °C 34246 hPa North 17.9 km/h 17.9 km/h 46 % 0 mm 79.0 W/m2 FEW
12:09 -17.2 °C -23.1 °C 34246 hPa NNW 20.9 km/h 20.9 km/h 45 % 0 mm 76.0 W/m2 FEW
12:14 -17.2 °C -23.1 °C 34246 hPa NNW 20.9 km/h 20.9 km/h 45 % 0 mm 70.0 W/m2 FEW
12:19 -17.2 °C -23.1 °C 34246 hPa NNW 17.9 km/h 17.9 km/h 45 % 0 mm 74.0 W/m2 FEW
12:24 -17.2 °C -23.1 °C 34246 hPa NNW 10.3 km/h 10.3 km/h 45 % 0 mm 81.0 W/m2 FEW
12:29 -17.2 °C -23.1 °C 34246 hPa Calm     45 % 0 mm 79.0 W/m2 FEW
12:35 -17.2 °C -23.1 °C 34246 hPa North 20.9 km/h 20.9 km/h 45 % 0 mm 79.0 W/m2 FEW
12:40 -17.2 °C -22.9 °C 34246 hPa NW 11.9 km/h 11.9 km/h 46 % 0 mm 83.0 W/m2 FEW
12:45 -17.2 °C -22.9 °C 34246 hPa North 12.9 km/h 12.9 km/h 46 % 0 mm 81.0 W/m2 FEW
12:50 -17.2 °C -22.9 °C 34256.2 hPa North 11.9 km/h 11.9 km/h 46 % 0 mm 79.0 W/m2 FEW
12:55 -17.2 °C -23.1 °C 34246 hPa Calm     45 % 0 mm 86.0 W/m2 FEW
13:00 -17.2 °C -22.7 °C 34246 hPa NNW 11.9 km/h 11.9 km/h 47 % 0 mm 98.0 W/m2 CLR
13:05 -17.2 °C -22.9 °C 34246 hPa Calm     46 % 0 mm 81.0 W/m2 CLR
13:10 -17.2 °C -22.9 °C 34246 hPa NNW 15 km/h 15 km/h 46 % 0 mm 72.0 W/m2 CLR
13:15 -17.2 °C -23.2 °C 34246 hPa NW 11.9 km/h 11.9 km/h 44 % 0 mm 70.0 W/m2 FEW
13:20 -17.2 °C -23.1 °C 34246 hPa Calm     45 % 0 mm 69.0 W/m2 FEW
13:25 -17.2 °C -23.1 °C 34246 hPa Calm     45 % 0 mm 63.0 W/m2 FEW
13:30 -17.2 °C -23.2 °C 34235.8 hPa Calm     44 % 0 mm 72.0 W/m2 FEW
13:35 -17.2 °C -23.1 °C 34235.8 hPa Calm     45 % 0 mm 81.0 W/m2 FEW
13:40 -17.2 °C -23.2 °C 34235.8 hPa Calm     44 % 0 mm 79.0 W/m2 FEW
13:45 -17.2 °C -23.2 °C 34235.8 hPa Calm     44 % 0 mm 79.0 W/m2 FEW
13:50 -17.2 °C -23.2 °C 34235.8 hPa Calm     44 % 0 mm 88.0 W/m2 FEW
13:55 -17.2 °C -23.2 °C 34235.8 hPa Calm     44 % 0 mm 79.0 W/m2 FEW
14:00 -17.2 °C -23.4 °C 34235.8 hPa Calm     43 % 0 mm 86.0 W/m2 FEW
14:05 -17.2 °C -23.4 °C 34222.3 hPa Calm     43 % 0 mm 91.0 W/m2 CLR
14:10 -17.2 °C -23.4 °C 34222.3 hPa Calm     43 % 0 mm 100.0 W/m2 CLR
14:15 -17.2 °C -23.4 °C 34222.3 hPa Calm     43 % 0 mm 100.0 W/m2 CLR
14:20 -17.2 °C -23.6 °C 34222.3 hPa Calm     42 % 0 mm 100.0 W/m2 CLR
14:25 -16.8 °C -23.3 °C 34222.3 hPa Calm     42 % 0 mm 105.0 W/m2 CLR
14:30 -16.8 °C -23.3 °C 34212.1 hPa Calm     42 % 0 mm 100.0 W/m2 CLR
14:35 -16.8 °C -23.3 °C 34212.1 hPa Calm     42 % 0 mm 91.0 W/m2 CLR
14:40 -16.8 °C -23.3 °C 34212.1 hPa Calm     42 % 0 mm 102.0 W/m2 CLR
14:45 -16.8 °C -23.3 °C 34212.1 hPa Calm     42 % 0 mm 102.0 W/m2 CLR
14:50 -16.8 °C -23.3 °C 34222.3 hPa Calm     42 % 0 mm 95.0 W/m2 CLR
14:55 -16.8 °C -23.3 °C 34212.1 hPa Calm     42 % 0 mm 93.0 W/m2 CLR
14:57 -16.8 °C -23.3 °C 34212.1 hPa Calm     42 % 0 mm 93.0 W/m2 CLR
15:02 -16.8 °C -23.3 °C 34212.1 hPa Calm     42 % 0 mm 86.0 W/m2 CLR
15:07 -16.8 °C -23.3 °C 34222.3 hPa Calm     42 % 0 mm 95.0 W/m2 CLR
15:12 -16.8 °C -23.3 °C 34212.1 hPa Calm     42 % 0 mm 100.0 W/m2 CLR
15:17 -16.8 °C -23.3 °C 34212.1 hPa Calm     42 % 0 mm 90.0 W/m2 CLR
15:22 -16.8 °C -23.1 °C 34212.1 hPa Calm     43 % 0 mm 72.0 W/m2 CLR
15:27 -16.8 °C -23.3 °C 34212.1 hPa Calm     42 % 0 mm 72.0 W/m2 FEW
15:32 -16.8 °C -23.3 °C 34212.1 hPa Calm     42 % 0 mm 69.0 W/m2 FEW
15:37 -16.8 °C -23.1 °C 34212.1 hPa Calm     43 % 0 mm 65.0 W/m2 FEW
15:42 -16.8 °C -23.1 °C 34212.1 hPa Calm     43 % 0 mm 90.0 W/m2 FEW
15:47 -16.8 °C -23.1 °C 34212.1 hPa Calm     43 % 0 mm 113.0 W/m2 CLR
15:52 -16.8 °C -23.1 °C 34198.6 hPa Calm     43 % 0 mm 141.0 W/m2 CLR
15:57 -16.8 °C -23.3 °C 34212.1 hPa Calm     42 % 0 mm 95.0 W/m2 CLR
16:02 -16.8 °C -23.1 °C 34198.6 hPa Calm     43 % 0 mm 116.0 W/m2 CLR
16:07 -16.8 °C -23.1 °C 34198.6 hPa Calm     43 % 0 mm 100.0 W/m2 CLR
16:12 -16.8 °C -23.1 °C 34198.6 hPa Calm     43 % 0 mm 79.0 W/m2 CLR
16:17 -16.8 °C -23.1 °C 34198.6 hPa Calm     43 % 0 mm 100.0 W/m2 CLR
16:22 -16.8 °C -22.9 °C 34198.6 hPa Calm     44 % 0 mm 111.0 W/m2 CLR
16:27 -16.8 °C -22.9 °C 34198.6 hPa Calm     44 % 0 mm 130.0 W/m2 CLR
16:32 -16.8 °C -22.9 °C 34198.6 hPa Calm     44 % 0 mm 84.0 W/m2 CLR
16:37 -16.8 °C -22.9 °C 34198.6 hPa Calm     44 % 0 mm 120.0 W/m2 CLR
16:42 -16.8 °C -23.1 °C 34198.6 hPa Calm     43 % 0 mm 84.0 W/m2 CLR
16:47 -16.8 °C -23.1 °C 34198.6 hPa Calm     43 % 0 mm 74.0 W/m2 FEW
16:52 -16.8 °C -23.1 °C 34198.6 hPa Calm     43 % 0 mm 63.0 W/m2 FEW
16:57 -16.8 °C -22.9 °C 34198.6 hPa Calm     44 % 0 mm 60.0 W/m2 FEW
17:02 -16.8 °C -22.9 °C 34198.6 hPa Calm     44 % 0 mm 62.0 W/m2 SCT
17:07 -16.6 °C -22.6 °C 34188.4 hPa Calm     45 % 0 mm 58.0 W/m2 SCT
17:12 -16.6 °C -22.4 °C 34198.6 hPa Calm     46 % 0 mm 44.0 W/m2 SCT
17:17 -16.6 °C -22.4 °C 34198.6 hPa Calm     46 % 0 mm 33.0 W/m2 SCT
17:22 -16.7 °C -22.4 °C 34198.6 hPa Calm     46 % 0 mm 30.0 W/m2 BKN
17:32 -16.7 °C -22.2 °C 34198.6 hPa Calm     48 % 0 mm 37.0 W/m2 BKN
17:37 -16.7 °C -22.2 °C 34198.6 hPa Calm     48 % 0 mm 32.0 W/m2 BKN
17:42 -16.7 °C -22.1 °C 34198.6 hPa Calm     49 % 0 mm 25.0 W/m2 BKN
17:47 -16.7 °C -21.9 °C 34198.6 hPa Calm     50 % 0 mm 19.0 W/m2 BKN
17:52 -16.7 °C -21.8 °C 34198.6 hPa Calm     51 % 0 mm 18.0 W/m2 BKN
17:57 -16.7 °C -21.5 °C 34198.6 hPa Calm     53 % 0 mm 12.0 W/m2 BKN
18:02 -16.7 °C -21.3 °C 34198.6 hPa Calm     54 % 0 mm 9.0 W/m2 BKN
18:07 -16.7 °C -21.3 °C 34212.1 hPa Calm     54 % 0 mm 5.0 W/m2 OVC
18:12 -16.7 °C -21.6 °C 34212.1 hPa Calm     52 % 0 mm 5.0 W/m2 OVC
18:17 -16.8 °C -21.7 °C 34212.1 hPa Calm     52 % 0 mm 7.0 W/m2 BKN
18:22 -16.8 °C -21.6 °C 34198.6 hPa Calm     53 % 0 mm 7.0 W/m2 BKN
18:27 -16.8 °C -21.6 °C 34212.1 hPa Calm     53 % 0 mm 5.0 W/m2 BKN
18:32 -16.8 °C -21.7 °C 34212.1 hPa Calm     52 % 0 mm 0.0 W/m2 OVC
18:37 -16.8 °C -21.8 °C 34222.3 hPa Calm     52 % 0 mm 0.0 W/m2 OVC
18:42 -16.8 °C -21.8 °C 34222.3 hPa Calm     52 % 0 mm 0.0 W/m2 OVC
18:47 -16.9 °C -21.8 °C 34222.3 hPa Calm     52 % 0 mm 0.0 W/m2 OVC
18:52 -16.9 °C -21.3 °C 34222.3 hPa Calm     55 % 0 mm 0.0 W/m2 OVC
18:57 -16.9 °C -20.9 °C 34212.1 hPa Calm     59 % 0 mm 0.0 W/m2 OVC
19:02 -17 °C -20.2 °C 34222.3 hPa ESE 11.9 km/h 11.9 km/h 66 % 0 mm 0.0 W/m2 CLR
19:07 -17.1 °C -19.9 °C 34212.1 hPa ESE 11.9 km/h 11.9 km/h 69 % 0 mm 0.0 W/m2 CLR
19:12 -17.1 °C -19.7 °C 34222.3 hPa ESE 9 km/h 9 km/h 71 % 0 mm 0.0 W/m2 CLR
19:17 -17.2 °C -19.7 °C 34222.3 hPa ENE 15.6 km/h 15.6 km/h 72 % 0 mm 0.0 W/m2 CLR
19:22 -17.3 °C -19.6 °C 34235.8 hPa ENE 20.9 km/h 20.9 km/h 74 % 0 mm 0.0 W/m2 CLR
19:27 -17.3 °C -19.4 °C 34235.8 hPa ENE 26.9 km/h 26.9 km/h 76 % 0 mm 0.0 W/m2 CLR
19:32 -17.4 °C -19.3 °C 34246 hPa ENE 20.9 km/h 20.9 km/h 78 % 0 mm 0.0 W/m2 CLR
19:37 -17.4 °C -19.3 °C 34235.8 hPa ENE 20.9 km/h 20.9 km/h 79 % 0 mm 0.0 W/m2 CLR
19:42 -17.6 °C -19.2 °C 34222.3 hPa ENE 20.9 km/h 20.9 km/h 80 % 0 mm 0.0 W/m2 CLR
19:47 -17.6 °C -19.2 °C 34235.8 hPa ENE 11.9 km/h 11.9 km/h 81 % 0 mm 0.0 W/m2 CLR
19:52 -17.7 °C -19.2 °C 34235.8 hPa ENE 15.6 km/h 15.6 km/h 82 % 0 mm 0.0 W/m2 CLR
19:57 -17.7 °C -19.2 °C 34246 hPa ENE 23.8 km/h 23.8 km/h 82 % 0 mm 0.0 W/m2 CLR
20:02 -17.7 °C -19.1 °C 34246 hPa ENE 15 km/h 15.3 km/h 83 % 0 mm 0.0 W/m2 CLR
20:07 -17.7 °C -19.1 °C 34246 hPa East 11.9 km/h 11.9 km/h 83 % 0 mm 0.0 W/m2 CLR
20:08 -17.7 °C -19.2 °C 34246 hPa East 11.9 km/h 11.9 km/h 83 % 0 mm 0.0 W/m2 CLR
20:13 -17.7 °C -19.2 °C 34246 hPa East 11.9 km/h 11.9 km/h 83 % 0 mm 0.0 W/m2 CLR
20:18 -17.8 °C -19.1 °C 34246 hPa ENE 9 km/h 9 km/h 84 % 0 mm 0.0 W/m2 CLR
20:23 -17.8 °C -19.1 °C 34246 hPa ENE 12.9 km/h 12.9 km/h 84 % 0 mm 0.0 W/m2 CLR
20:28 -17.8 °C -19.1 °C 34246 hPa East 9 km/h 9 km/h 84 % 0 mm 0.0 W/m2 CLR
20:33 -17.8 °C -19.1 °C 34246 hPa Calm     84 % 0 mm 0.0 W/m2 CLR
20:38 -17.8 °C -19.1 °C 34246 hPa Calm     84 % 0 mm 0.0 W/m2 CLR
20:43 -17.8 °C -19.1 °C 34246 hPa Calm     85 % 0 mm 0.0 W/m2 CLR
20:48 -17.8 °C -19.1 °C 34246 hPa Calm     85 % 0 mm 0.0 W/m2 CLR
20:53 -17.8 °C -19.1 °C 34235.8 hPa Calm     85 % 0 mm 0.0 W/m2 CLR
20:58 -17.8 °C -19.1 °C 34235.8 hPa Calm     85 % 0 mm 0.0 W/m2 CLR
21:03 -17.9 °C -19.1 °C 34235.8 hPa Calm     85 % 0 mm 0.0 W/m2 CLR
21:08 -17.9 °C -19.1 °C 34235.8 hPa Calm     85 % 0 mm 0.0 W/m2 CLR
21:13 -17.9 °C -19.1 °C 34235.8 hPa Calm     85 % 0 mm 0.0 W/m2 CLR
21:18 -17.8 °C -19 °C 34235.8 hPa Calm     86 % 0 mm 0.0 W/m2 CLR
21:23 -17.8 °C -19 °C 34222.3 hPa Calm     86 % 0 mm 0.0 W/m2 CLR
21:28 -17.8 °C -18.9 °C 34235.8 hPa Calm     86 % 0 mm 0.0 W/m2 CLR
21:33 -17.8 °C -18.9 °C 34235.8 hPa Calm     86 % 0 mm 0.0 W/m2 CLR
21:38 -17.8 °C -18.9 °C 34246 hPa Calm     86 % 0 mm 0.0 W/m2 CLR
21:43 -17.7 °C -18.9 °C 34246 hPa Calm     86 % 0 mm 0.0 W/m2 CLR
21:48 -17.7 °C -18.9 °C 34246 hPa Calm     86 % 0 mm 0.0 W/m2 CLR
21:53 -17.7 °C -18.9 °C 34246 hPa Calm     86 % 0 mm 0.0 W/m2 CLR
21:58 -17.7 °C -18.9 °C 34246 hPa Calm     86 % 0 mm 0.0 W/m2 CLR
22:03 -17.7 °C -18.9 °C 34246 hPa Calm     86 % 0 mm 0.0 W/m2 CLR
22:08 -17.7 °C -18.8 °C 34235.8 hPa Calm     86 % 0 mm 0.0 W/m2 CLR
22:13 -17.7 °C -18.8 °C 34235.8 hPa Calm     86 % 0 mm 0.0 W/m2 CLR
22:18 -17.7 °C -18.8 °C 34235.8 hPa Calm     86 % 0 mm 0.0 W/m2 CLR
22:23 -17.7 °C -18.8 °C 34235.8 hPa Calm     86 % 0 mm 0.0 W/m2 CLR
22:28 -17.7 °C -18.8 °C 34235.8 hPa Calm     86 % 0 mm 0.0 W/m2 CLR
22:33 -17.7 °C -18.8 °C 34235.8 hPa Calm     86 % 0 mm 0.0 W/m2 CLR
22:38 -17.7 °C -18.8 °C 34235.8 hPa Calm     86 % 0 mm 0.0 W/m2 CLR
22:43 -17.6 °C -18.8 °C 34235.8 hPa Calm     86 % 0 mm 0.0 W/m2 CLR
22:48 -17.6 °C -18.8 °C 34235.8 hPa Calm     86 % 0 mm 0.0 W/m2 CLR
22:53 -17.6 °C -18.7 °C 34235.8 hPa Calm     86 % 0 mm 0.0 W/m2 CLR
22:58 -17.6 °C -18.7 °C 34235.8 hPa Calm     86 % 0 mm 0.0 W/m2 CLR
23:03 -17.6 °C -18.7 °C 34235.8 hPa Calm     86 % 0 mm 0.0 W/m2 CLR
23:08 -17.6 °C -18.7 °C 34235.8 hPa Calm     86 % 0 mm 0.0 W/m2 CLR
23:13 -17.6 °C -18.7 °C 34222.3 hPa Calm     86 % 0 mm 0.0 W/m2 CLR
23:18 -17.5 °C -18.7 °C 34222.3 hPa Calm     86 % 0 mm 0.0 W/m2 CLR
23:23 -17.5 °C -18.7 °C 34222.3 hPa Calm     86 % 0 mm 0.0 W/m2 CLR
23:28 -17.5 °C -18.7 °C 34222.3 hPa Calm     86 % 0 mm 0.0 W/m2 CLR
23:33 -17.4 °C -18.6 °C 34222.3 hPa Calm     86 % 0 mm 0.0 W/m2 CLR
23:38 -17.4 °C -18.6 °C 34222.3 hPa Calm     86 % 0 mm 0.0 W/m2 CLR
23:43 -17.4 °C -18.6 °C 34222.3 hPa Calm     86 % 0 mm 0.0 W/m2 CLR
23:48 -17.4 °C -18.6 °C 34212.1 hPa Calm     86 % 0 mm 0.0 W/m2 CLR
23:53 -17.4 °C -18.6 °C 34212.1 hPa Calm     86 % 0 mm 0.0 W/m2 CLR
23:58 -17.4 °C -18.6 °C 34198.6 hPa Calm     86 % 0 mm 0.0 W/m2 CLR
Lo Temps de Massalio
Compliments of Weather Underground - 1.25 mb